createdAt,value
2018-03-25T00:03:00.176Z,3.75
2018-03-25T00:06:02.638Z,3.76
2018-03-25T00:09:05.127Z,3.84
2018-03-25T00:12:07.678Z,3.79
2018-03-25T00:15:10.122Z,3.65
2018-03-25T00:18:12.611Z,3.49
2018-03-25T00:21:15.053Z,3.34
2018-03-25T00:24:17.532Z,3.24
2018-03-25T00:27:20.089Z,3.14
2018-03-25T00:30:22.564Z,3.05
2018-03-25T00:33:25.063Z,2.96
2018-03-25T00:36:27.633Z,2.95
2018-03-25T00:39:30.083Z,2.85
2018-03-25T00:42:32.704Z,2.76
2018-03-25T00:45:35.190Z,2.65
2018-03-25T00:48:37.713Z,2.57
2018-03-25T00:51:40.208Z,2.55
2018-03-25T00:54:42.709Z,2.53
2018-03-25T00:57:45.237Z,2.51
2018-03-25T01:00:47.723Z,2.44
2018-03-25T01:03:50.172Z,2.44
2018-03-25T01:06:52.644Z,2.44
2018-03-25T01:09:55.129Z,2.47
2018-03-25T01:12:57.601Z,2.45
2018-03-25T01:16:10.966Z,2.41
2018-03-25T01:19:13.424Z,2.41
2018-03-25T01:22:15.923Z,2.41
2018-03-25T01:25:18.398Z,2.40
2018-03-25T01:28:20.879Z,2.44
2018-03-25T01:31:23.416Z,2.57
2018-03-25T01:34:25.880Z,2.56
2018-03-25T01:37:28.353Z,2.54
2018-03-25T01:40:30.905Z,2.50
2018-03-25T01:43:33.470Z,2.46
2018-03-25T01:46:35.923Z,2.51
2018-03-25T01:49:38.394Z,2.49
2018-03-25T01:52:40.952Z,2.42
2018-03-25T01:55:43.414Z,2.34
2018-03-25T01:58:45.936Z,2.31
2018-03-25T02:01:48.413Z,2.39
2018-03-25T02:04:51.692Z,2.28
2018-03-25T02:07:54.144Z,2.21
2018-03-25T02:10:56.634Z,2.16
2018-03-25T02:13:59.131Z,2.11
2018-03-25T02:17:01.584Z,2.05
2018-03-25T02:20:04.139Z,2.20
2018-03-25T02:23:06.686Z,2.15
2018-03-25T02:26:09.240Z,2.14
2018-03-25T02:29:11.708Z,2.09
2018-03-25T02:32:14.194Z,2.08
2018-03-25T02:35:16.671Z,2.06
2018-03-25T02:38:19.289Z,2.03
2018-03-25T02:41:21.770Z,2.05
2018-03-25T02:44:24.216Z,2.16
2018-03-25T02:47:26.674Z,2.21
2018-03-25T02:50:29.131Z,2.13
2018-03-25T02:53:31.622Z,2.25
2018-03-25T02:56:34.076Z,2.20
2018-03-25T02:59:36.491Z,2.15
2018-03-25T03:02:39.077Z,2.08
2018-03-25T03:05:41.526Z,1.99
2018-03-25T03:08:44.096Z,1.90
2018-03-25T03:11:46.560Z,1.91
2018-03-25T03:14:49.125Z,1.93
2018-03-25T03:17:51.690Z,1.86
2018-03-25T03:20:54.186Z,1.85
2018-03-25T03:23:56.634Z,1.86
2018-03-25T03:26:59.082Z,1.93
2018-03-25T03:30:01.630Z,2.00
2018-03-25T03:33:04.102Z,2.11
2018-03-25T03:36:06.657Z,2.16
2018-03-25T03:39:09.154Z,2.29
2018-03-25T03:42:11.625Z,2.26
2018-03-25T03:45:14.186Z,2.30
2018-03-25T03:48:16.805Z,2.39
2018-03-25T03:51:19.265Z,2.39
2018-03-25T03:54:21.847Z,2.36
2018-03-25T03:57:24.386Z,2.38
2018-03-25T04:00:26.983Z,2.46
2018-03-25T04:03:29.432Z,2.43
2018-03-25T04:06:32.089Z,2.41
2018-03-25T04:09:34.612Z,2.40
2018-03-25T04:12:37.201Z,2.40
2018-03-25T04:15:39.768Z,2.31
2018-03-25T04:18:42.272Z,2.30
2018-03-25T04:21:44.765Z,2.32
2018-03-25T04:24:47.270Z,2.24
2018-03-25T04:27:49.728Z,2.19
2018-03-25T04:30:52.332Z,2.16
2018-03-25T04:33:54.786Z,2.14
2018-03-25T04:36:57.272Z,2.11
2018-03-25T04:39:59.753Z,2.11
2018-03-25T04:43:02.244Z,2.19
2018-03-25T04:46:04.726Z,2.22
2018-03-25T04:49:07.188Z,2.28
2018-03-25T04:52:09.655Z,2.37
2018-03-25T04:55:12.163Z,2.37
2018-03-25T04:58:14.726Z,2.37
2018-03-25T05:01:17.191Z,2.36
2018-03-25T05:04:19.746Z,2.21
2018-03-25T05:07:22.208Z,2.22
2018-03-25T05:10:24.771Z,2.23
2018-03-25T05:13:27.243Z,2.42
2018-03-25T05:16:29.705Z,2.56
2018-03-25T05:19:32.172Z,2.56
2018-03-25T05:22:34.719Z,2.59
2018-03-25T05:25:37.287Z,2.61
2018-03-25T05:28:39.842Z,2.60
2018-03-25T05:31:42.275Z,2.44
2018-03-25T05:34:44.786Z,2.45
2018-03-25T05:37:47.326Z,2.39
2018-03-25T05:40:49.931Z,2.37
2018-03-25T05:43:52.409Z,2.31
2018-03-25T05:46:54.871Z,2.21
2018-03-25T05:49:57.342Z,2.28
2018-03-25T05:52:59.842Z,2.32
2018-03-25T05:56:02.354Z,2.37
2018-03-25T05:59:04.837Z,2.44
2018-03-25T06:02:07.322Z,2.60
2018-03-25T06:05:09.881Z,2.91
2018-03-25T06:08:12.358Z,3.28
2018-03-25T06:11:14.918Z,3.59
2018-03-25T06:14:17.414Z,4.06
2018-03-25T06:17:19.908Z,4.32
2018-03-25T06:20:22.384Z,4.56
2018-03-25T06:23:25.601Z,4.73
2018-03-25T06:26:28.124Z,4.86
2018-03-25T06:29:30.719Z,4.96
2018-03-25T06:32:33.255Z,5.13
2018-03-25T06:35:35.813Z,5.23
2018-03-25T06:38:38.287Z,5.35
2018-03-25T06:41:40.841Z,5.40
2018-03-25T06:44:43.325Z,5.50
2018-03-25T06:47:45.856Z,5.56
2018-03-25T06:50:48.342Z,5.63
2018-03-25T06:53:50.884Z,5.74
2018-03-25T06:56:53.449Z,5.53
2018-03-25T06:59:55.989Z,4.75
2018-03-25T07:02:58.464Z,4.47
2018-03-25T07:06:01.039Z,4.72
2018-03-25T07:09:03.455Z,4.79
2018-03-25T07:12:05.929Z,4.86
2018-03-25T07:15:08.520Z,4.75
2018-03-25T07:18:11.047Z,4.63
2018-03-25T07:21:13.470Z,4.41
2018-03-25T07:24:16.089Z,4.42
2018-03-25T07:27:18.543Z,4.20
2018-03-25T07:30:21.129Z,4.32
2018-03-25T07:33:23.690Z,4.28
2018-03-25T07:36:26.196Z,4.28
2018-03-25T07:39:28.693Z,4.26
2018-03-25T07:42:31.152Z,4.18
2018-03-25T07:45:33.750Z,4.17
2018-03-25T07:48:36.222Z,4.08
2018-03-25T07:51:38.762Z,4.16
2018-03-25T07:54:41.224Z,4.32
2018-03-25T07:57:43.741Z,4.20
2018-03-25T08:00:46.349Z,4.38
2018-03-25T08:03:48.956Z,4.69
2018-03-25T08:06:51.398Z,4.87
2018-03-25T08:09:53.933Z,5.08
2018-03-25T08:12:56.494Z,5.32
2018-03-25T08:15:59.024Z,5.46
2018-03-25T08:19:01.546Z,5.46
2018-03-25T08:22:04.047Z,5.53
2018-03-25T08:25:06.655Z,6.00
2018-03-25T08:28:09.129Z,6.07
2018-03-25T08:31:11.522Z,6.13
2018-03-25T08:34:14.023Z,6.36
2018-03-25T08:37:16.541Z,6.65
2018-03-25T08:40:19.178Z,6.69
2018-03-25T08:43:21.693Z,7.08
2018-03-25T08:46:24.289Z,7.09
2018-03-25T08:49:26.765Z,7.25
2018-03-25T08:52:29.299Z,7.04
2018-03-25T08:55:31.825Z,7.37
2018-03-25T08:58:34.264Z,7.33
2018-03-25T09:01:36.773Z,7.53
2018-03-25T09:04:39.269Z,7.64
2018-03-25T09:07:41.768Z,7.69
2018-03-25T09:10:44.294Z,7.78
2018-03-25T09:13:46.760Z,7.64
2018-03-25T09:16:49.239Z,7.97
2018-03-25T09:19:51.720Z,8.12
2018-03-25T09:22:54.267Z,8.51
2018-03-25T09:25:56.683Z,8.67
2018-03-25T09:28:59.176Z,8.56
2018-03-25T09:32:01.676Z,9.03
2018-03-25T09:35:04.285Z,9.07
2018-03-25T09:38:06.819Z,9.03
2018-03-25T09:41:09.338Z,9.16
2018-03-25T09:44:11.806Z,9.12
2018-03-25T09:47:14.306Z,9.27
2018-03-25T09:50:16.944Z,9.19
2018-03-25T09:53:19.537Z,9.44
2018-03-25T09:56:22.089Z,9.85
2018-03-25T09:59:28.243Z,10.11
2018-03-25T10:02:31.620Z,9.84
2018-03-25T10:05:34.185Z,9.93
2018-03-25T10:08:36.678Z,9.64
2018-03-25T10:11:39.209Z,9.99
2018-03-25T10:14:41.762Z,9.96
2018-03-25T10:17:44.217Z,10.35
2018-03-25T10:20:46.794Z,10.18
2018-03-25T10:23:49.319Z,10.12
2018-03-25T10:26:51.824Z,9.71
2018-03-25T10:29:54.362Z,9.60
2018-03-25T10:32:56.882Z,9.69
2018-03-25T10:35:59.395Z,10.11
2018-03-25T10:39:17.172Z,10.33
2018-03-25T10:42:19.671Z,10.18
2018-03-25T10:45:22.240Z,10.43
2018-03-25T10:48:24.736Z,10.82
2018-03-25T10:51:29.411Z,10.62
2018-03-25T10:54:31.896Z,10.89
2018-03-25T10:57:34.402Z,10.62
2018-03-25T11:00:36.881Z,11.15
2018-03-25T11:03:39.411Z,11.29
2018-03-25T11:06:41.891Z,10.94
2018-03-25T11:09:44.396Z,11.15
2018-03-25T11:12:46.941Z,11.22
2018-03-25T11:15:49.481Z,11.16
2018-03-25T11:18:52.063Z,10.84
2018-03-25T11:21:54.691Z,10.97
2018-03-25T11:24:57.171Z,11.37
2018-03-25T11:27:59.697Z,11.46
2018-03-25T11:31:02.160Z,11.00
2018-03-25T11:34:04.705Z,11.22
2018-03-25T11:37:07.223Z,11.48
2018-03-25T11:40:09.848Z,11.63
2018-03-25T11:43:12.311Z,10.49
2018-03-25T11:46:14.833Z,11.03
2018-03-25T11:49:17.302Z,11.56
2018-03-25T11:52:19.837Z,11.32
2018-03-25T11:55:22.407Z,11.11
2018-03-25T11:58:24.870Z,10.63
2018-03-25T12:01:27.367Z,10.56
2018-03-25T12:04:29.982Z,10.92
2018-03-25T12:07:32.517Z,11.25
2018-03-25T12:10:35.021Z,11.34
2018-03-25T12:13:37.503Z,11.30
2018-03-25T12:16:40.027Z,11.57
2018-03-25T12:19:42.535Z,11.61
2018-03-25T12:22:45.016Z,11.45
2018-03-25T12:25:47.506Z,11.37
2018-03-25T12:28:50.192Z,11.23
2018-03-25T12:31:52.762Z,11.88
2018-03-25T12:34:55.322Z,11.28
2018-03-25T12:37:57.881Z,11.16
2018-03-25T12:41:00.447Z,10.90
2018-03-25T12:44:03.172Z,10.87
2018-03-25T12:47:05.774Z,10.97
2018-03-25T12:50:08.331Z,10.59
2018-03-25T12:53:10.817Z,10.74
2018-03-25T12:56:13.326Z,10.66
2018-03-25T12:59:15.877Z,10.95
2018-03-25T13:02:18.487Z,10.51
2018-03-25T13:05:21.005Z,10.60
2018-03-25T13:08:23.471Z,11.04
2018-03-25T13:11:25.963Z,11.56
2018-03-25T13:14:28.517Z,11.61
2018-03-25T13:17:31.001Z,11.47
2018-03-25T13:20:33.547Z,11.55
2018-03-25T13:23:36.042Z,11.68
2018-03-25T13:26:38.532Z,11.51
2018-03-25T13:29:41.104Z,11.63
2018-03-25T13:32:44.622Z,10.67
2018-03-25T13:35:47.186Z,11.05
2018-03-25T13:38:49.699Z,11.45
2018-03-25T13:41:52.175Z,11.43
2018-03-25T13:44:54.781Z,11.01
2018-03-25T13:47:57.279Z,10.88
2018-03-25T13:50:59.791Z,10.95
2018-03-25T13:54:02.317Z,10.92
2018-03-25T13:57:04.843Z,10.88
2018-03-25T14:00:07.383Z,10.80
2018-03-25T14:03:09.913Z,10.92
2018-03-25T14:06:12.453Z,10.85
2018-03-25T14:09:14.919Z,10.72
2018-03-25T14:12:17.429Z,10.98
2018-03-25T14:15:19.922Z,10.65
2018-03-25T14:18:22.500Z,10.68
2018-03-25T14:21:24.986Z,10.82
2018-03-25T14:24:27.560Z,10.58
2018-03-25T14:27:30.070Z,10.46
2018-03-25T14:30:32.602Z,10.51
2018-03-25T14:33:35.118Z,10.69
2018-03-25T14:36:37.640Z,10.22
2018-03-25T14:39:40.189Z,10.66
2018-03-25T14:42:42.770Z,10.25
2018-03-25T14:45:45.309Z,10.41
2018-03-25T14:48:47.829Z,10.53
2018-03-25T14:51:50.415Z,10.29
2018-03-25T14:54:52.955Z,10.07
2018-03-25T14:57:55.432Z,10.10
2018-03-25T15:00:57.962Z,9.88
2018-03-25T15:04:00.454Z,10.03
2018-03-25T15:07:03.053Z,9.56
2018-03-25T15:10:05.612Z,9.57
2018-03-25T15:13:08.275Z,9.51
2018-03-25T15:16:10.809Z,9.34
2018-03-25T15:19:13.293Z,9.34
2018-03-25T15:22:15.863Z,9.45
2018-03-25T15:25:18.443Z,9.38
2018-03-25T15:28:20.986Z,9.52
2018-03-25T15:31:23.625Z,9.64
2018-03-25T15:34:26.153Z,9.67
2018-03-25T15:37:29.670Z,9.64
2018-03-25T15:40:32.369Z,9.69
2018-03-25T15:43:34.949Z,9.70
2018-03-25T15:46:37.494Z,9.72
2018-03-25T15:49:40.185Z,9.79
2018-03-25T15:52:42.856Z,9.72
2018-03-25T15:55:45.554Z,9.62
2018-03-25T15:58:48.209Z,9.70
2018-03-25T16:01:50.715Z,9.48
2018-03-25T16:04:53.261Z,9.45
2018-03-25T16:07:55.904Z,9.51
2018-03-25T16:10:58.400Z,9.40
2018-03-25T16:14:01.036Z,9.38
2018-03-25T16:17:03.664Z,9.32
2018-03-25T16:20:06.243Z,9.34
2018-03-25T16:23:08.969Z,9.49
2018-03-25T16:26:11.550Z,9.38
2018-03-25T16:29:14.186Z,9.27
2018-03-25T16:32:16.759Z,9.27
2018-03-25T16:35:19.279Z,9.20
2018-03-25T16:38:21.885Z,9.14
2018-03-25T16:41:24.546Z,9.14
2018-03-25T16:44:27.128Z,9.09
2018-03-25T16:47:29.812Z,9.08
2018-03-25T16:50:32.277Z,9.04
2018-03-25T16:53:34.873Z,8.98
2018-03-25T16:56:37.563Z,8.93
2018-03-25T16:59:40.093Z,8.92
2018-03-25T17:02:42.630Z,8.89
2018-03-25T17:05:45.245Z,8.89
2018-03-25T17:08:47.792Z,8.88
2018-03-25T17:11:50.327Z,8.82
2018-03-25T17:14:52.941Z,8.83
2018-03-25T17:17:55.436Z,8.79
2018-03-25T17:20:58.014Z,8.73
2018-03-25T17:24:00.571Z,8.71
2018-03-25T17:27:03.132Z,8.70
2018-03-25T17:30:05.673Z,8.72
2018-03-25T17:33:08.320Z,8.67
2018-03-25T17:36:10.876Z,8.61
2018-03-25T17:39:13.393Z,8.57
2018-03-25T17:42:16.003Z,8.50
2018-03-25T17:45:19.392Z,8.44
2018-03-25T17:48:21.881Z,8.38
2018-03-25T17:51:24.511Z,8.26
2018-03-25T17:54:27.071Z,8.18
2018-03-25T17:57:29.599Z,8.14
2018-03-25T18:00:32.076Z,8.08
2018-03-25T18:03:34.616Z,7.98
2018-03-25T18:06:37.156Z,7.92
2018-03-25T18:09:39.787Z,7.85
2018-03-25T18:12:42.362Z,7.76
2018-03-25T18:15:44.888Z,7.69
2018-03-25T18:18:47.489Z,7.65
2018-03-25T18:21:50.143Z,7.60
2018-03-25T18:24:52.701Z,7.58
2018-03-25T18:27:55.266Z,7.50
2018-03-25T18:30:57.930Z,7.44
2018-03-25T18:34:00.497Z,7.39
2018-03-25T18:37:03.050Z,7.34
2018-03-25T18:40:05.605Z,7.30
2018-03-25T18:43:08.277Z,7.23
2018-03-25T18:46:10.785Z,7.22
2018-03-25T18:49:13.349Z,7.17
2018-03-25T18:52:15.968Z,7.15
2018-03-25T18:55:18.452Z,7.13
2018-03-25T18:58:21.107Z,7.14
2018-03-25T19:01:23.662Z,7.13
2018-03-25T19:04:26.413Z,7.12
2018-03-25T19:07:29.088Z,7.13
2018-03-25T19:10:31.757Z,7.07
2018-03-25T19:13:34.337Z,7.02
2018-03-25T19:16:37.077Z,6.99
2018-03-25T19:19:39.654Z,7.00
2018-03-25T19:22:42.256Z,7.02
2018-03-25T19:25:44.938Z,7.00
2018-03-25T19:28:47.562Z,6.97
2018-03-25T19:31:50.208Z,6.90
2018-03-25T19:34:52.907Z,6.84
2018-03-25T19:37:55.543Z,6.81
2018-03-25T19:40:58.057Z,6.79
2018-03-25T19:44:00.678Z,6.75
2018-03-25T19:47:03.213Z,6.75
2018-03-25T19:50:05.806Z,6.72
2018-03-25T19:53:08.358Z,6.70
2018-03-25T19:56:10.929Z,6.68
2018-03-25T19:59:13.409Z,6.67
2018-03-25T20:02:15.934Z,6.67
2018-03-25T20:05:18.500Z,6.67
2018-03-25T20:08:21.059Z,6.68
2018-03-25T20:11:23.625Z,6.72
2018-03-25T20:14:26.266Z,6.73
2018-03-25T20:17:28.660Z,6.74
2018-03-25T20:20:31.197Z,6.79
2018-03-25T20:23:33.768Z,6.89
2018-03-25T20:26:36.444Z,6.96
2018-03-25T20:29:38.893Z,7.02
2018-03-25T20:32:41.463Z,7.08
2018-03-25T20:35:43.975Z,7.07
2018-03-25T20:38:46.488Z,7.12
2018-03-25T20:41:49.064Z,7.12
2018-03-25T20:44:51.612Z,7.09
2018-03-25T20:47:54.178Z,7.03
2018-03-25T20:50:56.660Z,7.01
2018-03-25T20:53:59.214Z,7.01
2018-03-25T20:57:01.681Z,7.12
2018-03-25T21:00:04.228Z,7.10
2018-03-25T21:03:06.802Z,7.07
2018-03-25T21:06:09.277Z,7.04
2018-03-25T21:09:11.863Z,7.08
2018-03-25T21:12:14.372Z,7.03
2018-03-25T21:15:16.898Z,7.07
2018-03-25T21:18:19.368Z,7.09
2018-03-25T21:21:21.913Z,7.03
2018-03-25T21:24:24.519Z,7.00
2018-03-25T21:27:27.135Z,6.97
2018-03-25T21:30:29.749Z,6.90
2018-03-25T21:33:32.322Z,6.87
2018-03-25T21:36:34.950Z,6.86
2018-03-25T21:39:37.436Z,6.87
2018-03-25T21:42:39.954Z,6.83
2018-03-25T21:45:42.469Z,6.82
2018-03-25T21:48:44.959Z,6.80
2018-03-25T21:51:47.506Z,6.79
2018-03-25T21:54:50.061Z,6.79
2018-03-25T21:57:52.604Z,6.79
2018-03-25T22:00:55.134Z,6.80
2018-03-25T22:03:57.617Z,6.78
2018-03-25T22:07:00.130Z,6.74
2018-03-25T22:10:02.593Z,6.74
2018-03-25T22:13:05.135Z,6.74
2018-03-25T22:16:07.778Z,6.73
2018-03-25T22:19:10.350Z,6.74
2018-03-25T22:22:12.820Z,6.74
2018-03-25T22:25:15.339Z,6.72
2018-03-25T22:28:17.924Z,6.74
2018-03-25T22:31:20.455Z,6.72
2018-03-25T22:34:22.937Z,6.71
2018-03-25T22:37:25.416Z,6.70
2018-03-25T22:40:27.929Z,6.68
2018-03-25T22:43:30.451Z,6.67
2018-03-25T22:46:32.940Z,6.66
2018-03-25T22:49:35.460Z,6.66
2018-03-25T22:52:38.020Z,6.65
2018-03-25T22:55:40.535Z,6.65
2018-03-25T22:58:43.018Z,6.63
2018-03-25T23:01:45.528Z,6.63
2018-03-25T23:04:47.980Z,6.64
2018-03-25T23:07:50.583Z,6.63
2018-03-25T23:10:53.031Z,6.63
2018-03-25T23:13:55.561Z,6.60
2018-03-25T23:16:58.030Z,6.59
2018-03-25T23:20:00.526Z,6.57
2018-03-25T23:23:03.078Z,6.59
2018-03-25T23:26:05.549Z,6.63
2018-03-25T23:29:08.018Z,6.55
2018-03-25T23:32:10.601Z,6.59
2018-03-25T23:35:13.080Z,6.61
2018-03-25T23:38:15.580Z,6.63
2018-03-25T23:41:18.028Z,6.61
2018-03-25T23:44:20.518Z,6.57
2018-03-25T23:47:23.014Z,6.60
2018-03-25T23:50:25.584Z,6.63
2018-03-25T23:53:28.045Z,6.59
2018-03-25T23:56:30.574Z,6.55
2018-03-25T23:59:33.076Z,6.57
